Time;durP1;ratioP1;P1;durP2;ratioP2;P2;SDS_P1;SDS_P2;PMS_P1;PMS_P2;Temp;Humidity;BMP_temperature;BMP_pressure;BME280_temperature;BME280_humidity;BME280_pressure;Samples;Min_cycle;Max_cycle;Signal;HPM_P1;HPM_P2
2022/09/02 00:01:02;;;;;;;;;;;24.80;41.20;;;;;;1526442;76;781;-59
2022/09/02 00:03:04;;;;;;;;;;;24.80;41.20;;;;;;1524948;77;1936;-60
2022/09/02 00:05:06;;;;;;;;;;;24.80;41.20;;;;;;1522569;76;742;-59
2022/09/02 00:07:08;;;;;;;;;;;24.80;41.20;;;;;;1525226;76;736;-60
2022/09/02 00:09:11;;;;;;;;;;;24.80;41.20;;;;;;1536503;77;884;-61
2022/09/02 00:11:14;;;;;;;;;;;24.80;41.20;;;;;;1531170;77;678;-60
2022/09/02 00:13:17;;;;;;;;;;;24.80;41.20;;;;;;1528959;76;1150;-60
2022/09/02 00:15:19;;;;;;;;;;;24.80;41.30;;;;;;1519768;76;1518;-59
2022/09/02 00:17:20;;;;;;;;;;;24.80;41.30;;;;;;1536174;76;714;-61
2022/09/02 00:19:24;;;;;;;;;;;24.80;41.20;;;;;;1529132;76;724;-61
2022/09/02 00:21:26;;;;;;;;;;;24.80;41.20;;;;;;1535432;76;1933;-59
2022/09/02 00:23:27;;;;;;;;;;;24.80;41.20;;;;;;1525230;77;1122;-60
2022/09/02 00:25:29;;;;;;;;;;;24.90;41.20;;;;;;1532672;77;734;-61
2022/09/02 00:27:32;;;;;;;;;;;24.90;41.20;;;;;;1526213;77;676;-59
2022/09/02 00:29:33;;;;;;;;;;;24.80;41.10;;;;;;1538421;76;622;-60
2022/09/02 00:31:35;;;;;;;;;;;24.80;41.10;;;;;;1527985;77;671;-59
2022/09/02 00:33:38;;;;;;;;;;;24.80;41.10;;;;;;1524592;77;1142;-60
2022/09/02 00:35:40;;;;;;;;;;;24.90;41.30;;;;;;1534505;77;721;-59
2022/09/02 00:37:41;;;;;;;;;;;24.80;41.20;;;;;;1532366;77;751;-59
2022/09/02 00:39:43;;;;;;;;;;;24.80;41.10;;;;;;1530720;76;730;-60
2022/09/02 00:41:45;;;;;;;;;;;24.80;41.20;;;;;;1519493;76;1958;-59
2022/09/02 00:43:51;;;;;;;;;;;24.80;41.20;;;;;;1521338;77;1129;-60
2022/09/02 00:45:54;;;;;;;;;;;24.80;41.20;;;;;;1520721;77;753;-59
2022/09/02 00:47:56;;;;;;;;;;;24.80;41.20;;;;;;1537066;77;764;-60
2022/09/02 00:49:58;;;;;;;;;;;24.80;41.10;;;;;;1525358;77;888;-60
2022/09/02 00:52:07;;;;;;;;;;;24.80;41.10;;;;;;1535386;77;783;-59
2022/09/02 00:54:10;;;;;;;;;;;24.80;41.10;;;;;;1523904;77;1094;-61
2022/09/02 00:56:13;;;;;;;;;;;24.80;41.20;;;;;;1530852;77;713;-59
2022/09/02 00:58:17;;;;;;;;;;;24.80;41.30;;;;;;1537935;76;720;-59
2022/09/02 01:00:20;;;;;;;;;;;24.80;41.30;;;;;;1526359;77;767;-61
2022/09/02 01:02:24;;;;;;;;;;;24.80;41.30;;;;;;1533503;77;1939;-60
2022/09/02 01:04:26;;;;;;;;;;;24.80;41.30;;;;;;1523607;76;1251;-60
2022/09/02 01:06:32;;;;;;;;;;;24.80;41.30;;;;;;1523912;76;737;-60
2022/09/02 01:08:33;;;;;;;;;;;24.80;41.30;;;;;;1538358;76;1897;-59
2022/09/02 01:10:35;;;;;;;;;;;24.80;41.30;;;;;;1534965;76;1526;-60
2022/09/02 01:12:37;;;;;;;;;;;24.80;41.30;;;;;;1526810;76;709;-60
2022/09/02 01:14:39;;;;;;;;;;;24.80;41.30;;;;;;1529392;75;1093;-59
2022/09/02 01:16:42;;;;;;;;;;;24.80;41.30;;;;;;1533551;77;739;-60
2022/09/02 01:18:45;;;;;;;;;;;24.80;41.30;;;;;;1529172;76;740;-60
2022/09/02 01:20:47;;;;;;;;;;;24.80;41.30;;;;;;1533158;76;811;-59
2022/09/02 01:22:49;;;;;;;;;;;24.80;41.40;;;;;;1530295;77;1941;-61
2022/09/02 01:24:51;;;;;;;;;;;24.80;41.40;;;;;;1530135;77;1086;-59
2022/09/02 01:26:53;;;;;;;;;;;24.80;41.30;;;;;;1532282;76;707;-59
2022/09/02 01:28:55;;;;;;;;;;;24.80;41.30;;;;;;1528519;77;762;-60
2022/09/02 01:30:57;;;;;;;;;;;24.80;41.40;;;;;;1528503;77;782;-60
2022/09/02 01:32:59;;;;;;;;;;;24.80;41.30;;;;;;1534840;75;1144;-59
2022/09/02 01:35:01;;;;;;;;;;;24.80;41.30;;;;;;1528804;76;791;-60
2022/09/02 01:37:03;;;;;;;;;;;24.80;41.40;;;;;;1531746;77;802;-59
2022/09/02 01:39:05;;;;;;;;;;;24.80;41.40;;;;;;1530178;76;783;-60
2022/09/02 01:41:06;;;;;;;;;;;24.80;41.40;;;;;;1533405;77;821;-59
2022/09/02 01:43:10;;;;;;;;;;;24.80;41.40;;;;;;1527037;75;1944;-60
2022/09/02 01:45:11;;;;;;;;;;;24.80;41.40;;;;;;1529353;76;725;-60
2022/09/02 01:47:14;;;;;;;;;;;24.80;41.40;;;;;;1531746;77;776;-61
2022/09/02 01:49:16;;;;;;;;;;;24.70;41.40;;;;;;1527253;76;851;-59
2022/09/02 01:51:18;;;;;;;;;;;24.80;41.50;;;;;;1525723;77;711;-60
2022/09/02 01:53:20;;;;;;;;;;;24.80;41.40;;;;;;1529120;77;1145;-59
2022/09/02 01:55:22;;;;;;;;;;;24.80;41.40;;;;;;1532539;76;776;-59
2022/09/02 01:57:24;;;;;;;;;;;24.80;41.50;;;;;;1531038;76;737;-59
2022/09/02 01:59:26;;;;;;;;;;;24.70;41.50;;;;;;1535237;77;806;-60
2022/09/02 02:01:28;;;;;;;;;;;24.80;41.50;;;;;;1530464;76;765;-60
2022/09/02 02:03:30;;;;;;;;;;;24.70;41.50;;;;;;1523374;77;1937;-60
2022/09/02 02:05:32;;;;;;;;;;;24.70;41.50;;;;;;1530948;77;753;-60
2022/09/02 02:07:34;;;;;;;;;;;24.80;41.50;;;;;;1532114;76;1315;-59
2022/09/02 02:09:36;;;;;;;;;;;24.70;41.50;;;;;;1534207;76;764;-60
2022/09/02 02:11:37;;;;;;;;;;;24.70;41.50;;;;;;1535226;76;701;-60
2022/09/02 02:13:39;;;;;;;;;;;24.80;41.60;;;;;;1529659;75;1077;-60
2022/09/02 02:15:41;;;;;;;;;;;24.80;41.60;;;;;;1533282;77;743;-60
2022/09/02 02:17:43;;;;;;;;;;;24.80;41.60;;;;;;1524975;77;762;-61
2022/09/02 02:19:45;;;;;;;;;;;24.80;41.70;;;;;;1533581;76;726;-59
2022/09/02 02:21:47;;;;;;;;;;;24.70;41.60;;;;;;1525221;77;741;-59
2022/09/02 02:23:49;;;;;;;;;;;24.80;41.70;;;;;;1527042;77;1938;-59
2022/09/02 02:25:51;;;;;;;;;;;24.70;41.70;;;;;;1537392;76;774;-59
2022/09/02 02:27:53;;;;;;;;;;;24.80;41.80;;;;;;1534090;77;699;-60
2022/09/02 02:29:54;;;;;;;;;;;24.70;41.80;;;;;;1528484;76;693;-60
2022/09/02 02:31:56;;;;;;;;;;;24.80;41.80;;;;;;1535482;77;727;-59
2022/09/02 02:33:58;;;;;;;;;;;24.80;41.80;;;;;;1526892;75;1120;-59
2022/09/02 02:36:03;;;;;;;;;;;24.80;41.90;;;;;;1526797;77;727;-59
2022/09/02 02:38:04;;;;;;;;;;;24.80;41.90;;;;;;1527789;76;1709;-60
2022/09/02 02:40:06;;;;;;;;;;;24.80;41.90;;;;;;1525604;76;784;-59
2022/09/02 02:42:08;;;;;;;;;;;24.80;42.00;;;;;;1523463;76;1920;-59
2022/09/02 02:44:10;;;;;;;;;;;24.80;41.90;;;;;;1519735;76;1154;-58
2022/09/02 02:46:12;;;;;;;;;;;24.80;41.90;;;;;;1520820;76;797;-59
2022/09/02 02:48:14;;;;;;;;;;;24.80;42.10;;;;;;1515411;76;762;-59
2022/09/02 02:50:16;;;;;;;;;;;24.80;42.00;;;;;;1516889;76;669;-58
2022/09/02 02:52:19;;;;;;;;;;;24.70;42.10;;;;;;1517640;76;739;-59
2022/09/02 02:54:21;;;;;;;;;;;24.80;42.10;;;;;;1521072;76;1130;-60
2022/09/02 02:56:23;;;;;;;;;;;24.70;42.10;;;;;;1526123;76;799;-59
2022/09/02 02:58:25;;;;;;;;;;;24.70;42.10;;;;;;1519641;76;587;-59
2022/09/02 03:00:27;;;;;;;;;;;24.80;42.10;;;;;;1514886;76;726;-58
2022/09/02 03:02:32;;;;;;;;;;;24.80;42.00;;;;;;1516643;76;1936;-59
2022/09/02 03:04:33;;;;;;;;;;;24.60;42.00;;;;;;1521495;76;1678;-59
2022/09/02 03:06:35;;;;;;;;;;;24.70;42.10;;;;;;1527822;76;733;-60
2022/09/02 03:08:37;;;;;;;;;;;24.70;42.10;;;;;;1515257;76;747;-59
2022/09/02 03:10:39;;;;;;;;;;;24.60;42.00;;;;;;1517171;76;737;-59
2022/09/02 03:12:46;;;;;;;;;;;24.60;42.00;;;;;;1515760;76;736;-60
2022/09/02 03:14:45;;;;;;;;;;;24.70;42.10;;;;;;1516668;76;1706;-60
2022/09/02 03:16:47;;;;;;;;;;;24.70;42.10;;;;;;1516397;76;846;-58
2022/09/02 03:18:49;;;;;;;;;;;24.70;42.10;;;;;;1516602;76;749;-59
2022/09/02 03:20:51;;;;;;;;;;;24.70;42.10;;;;;;1519045;76;586;-59
2022/09/02 03:22:53;;;;;;;;;;;24.60;42.00;;;;;;1522333;76;1949;-58
2022/09/02 03:24:55;;;;;;;;;;;24.70;42.10;;;;;;1521028;76;749;-58
2022/09/02 03:26:57;;;;;;;;;;;24.70;42.10;;;;;;1522873;76;702;-58
2022/09/02 03:28:59;;;;;;;;;;;24.70;42.10;;;;;;1524604;76;712;-58
2022/09/02 03:31:01;;;;;;;;;;;24.70;42.10;;;;;;1518567;76;811;-62
2022/09/02 03:33:04;;;;;;;;;;;24.70;42.00;;;;;;1521005;76;1134;-59
2022/09/02 03:35:06;;;;;;;;;;;24.70;42.00;;;;;;1518437;76;808;-59
2022/09/02 03:37:08;;;;;;;;;;;24.70;42.10;;;;;;1526545;76;720;-59
2022/09/02 03:39:10;;;;;;;;;;;24.70;42.10;;;;;;1521303;76;706;-59
2022/09/02 03:41:12;;;;;;;;;;;24.60;42.00;;;;;;1519421;76;739;-58
2022/09/02 03:43:14;;;;;;;;;;;24.70;42.10;;;;;;1517667;77;1934;-58
2022/09/02 03:45:16;;;;;;;;;;;24.70;42.10;;;;;;1515530;76;859;-58
2022/09/02 03:47:20;;;;;;;;;;;24.70;42.20;;;;;;1515739;76;719;-60
2022/09/02 03:49:22;;;;;;;;;;;24.70;42.10;;;;;;1521132;76;777;-59
2022/09/02 03:51:24;;;;;;;;;;;24.70;42.10;;;;;;1517625;76;782;-60
2022/09/02 03:53:26;;;;;;;;;;;24.60;42.00;;;;;;1518543;76;1118;-59
2022/09/02 03:55:28;;;;;;;;;;;24.70;42.10;;;;;;1513900;76;700;-59
2022/09/02 03:57:30;;;;;;;;;;;24.60;42.00;;;;;;1521316;77;757;-59
2022/09/02 03:59:32;;;;;;;;;;;24.70;42.10;;;;;;1522298;76;1534;-59
2022/09/02 04:01:33;;;;;;;;;;;24.60;41.90;;;;;;1524078;76;745;-59
2022/09/02 04:03:35;;;;;;;;;;;24.70;42.10;;;;;;1500556;77;1951;-60
2022/09/02 04:05:38;;;;;;;;;;;24.60;42.10;;;;;;1520909;76;740;-58
2022/09/02 04:07:40;;;;;;;;;;;24.60;42.00;;;;;;1517488;76;794;-62
2022/09/02 04:09:42;;;;;;;;;;;24.60;42.10;;;;;;1515670;76;742;-59
2022/09/02 04:11:43;;;;;;;;;;;24.60;42.00;;;;;;1522794;76;832;-57
2022/09/02 04:13:46;;;;;;;;;;;24.60;42.00;;;;;;1522405;77;1129;-61
2022/09/02 04:15:48;;;;;;;;;;;24.60;42.10;;;;;;1519217;77;762;-60
2022/09/02 04:17:49;;;;;;;;;;;24.70;42.10;;;;;;1517067;77;746;-59
2022/09/02 04:19:53;;;;;;;;;;;24.70;42.10;;;;;;1526843;76;675;-59
2022/09/02 04:21:55;;;;;;;;;;;24.70;42.10;;;;;;1521769;77;735;-60
2022/09/02 04:23:57;;;;;;;;;;;24.70;42.10;;;;;;1522293;77;1945;-59
2022/09/02 04:25:59;;;;;;;;;;;24.50;42.00;;;;;;1522200;77;872;-60
2022/09/02 04:28:01;;;;;;;;;;;24.70;42.10;;;;;;1521429;76;737;-61
2022/09/02 04:30:03;;;;;;;;;;;24.70;42.10;;;;;;1522177;77;713;-59
2022/09/02 04:32:05;;;;;;;;;;;24.60;42.00;;;;;;1529524;74;2114;-59
2022/09/02 04:34:07;;;;;;;;;;;24.60;42.00;;;;;;1561127;74;1175;-58
2022/09/02 04:36:10;;;;;;;;;;;24.70;42.10;;;;;;1568241;74;731;-57
2022/09/02 04:38:12;;;;;;;;;;;24.60;42.00;;;;;;1574416;74;736;-58
2022/09/02 04:40:14;;;;;;;;;;;24.60;41.90;;;;;;1580801;74;714;-60
2022/09/02 04:42:16;;;;;;;;;;;24.60;42.00;;;;;;1578573;74;923;-61
2022/09/02 04:44:18;;;;;;;;;;;24.60;41.90;;;;;;1578036;74;1946;-60
2022/09/02 04:46:20;;;;;;;;;;;24.60;42.00;;;;;;1577250;74;716;-60
2022/09/02 04:48:22;;;;;;;;;;;24.60;41.90;;;;;;1576046;74;743;-57
2022/09/02 04:50:24;;;;;;;;;;;24.60;41.90;;;;;;1574783;74;753;-60
2022/09/02 04:52:26;;;;;;;;;;;24.60;41.90;;;;;;1580077;74;852;-59
2022/09/02 04:54:28;;;;;;;;;;;24.60;41.90;;;;;;1573216;74;1124;-58
2022/09/02 04:56:34;;;;;;;;;;;24.60;41.90;;;;;;1578854;74;1547;-60
2022/09/02 04:58:34;;;;;;;;;;;24.60;41.90;;;;;;1574988;74;1308;-59
2022/09/02 05:00:37;;;;;;;;;;;24.60;41.80;;;;;;1575582;74;768;-60
2022/09/02 05:02:40;;;;;;;;;;;24.60;41.90;;;;;;1572635;74;1801;-57
2022/09/02 05:04:42;;;;;;;;;;;24.60;41.90;;;;;;1578756;74;1922;-60
2022/09/02 05:06:45;;;;;;;;;;;24.60;41.80;;;;;;1577069;74;764;-56
2022/09/02 05:08:50;;;;;;;;;;;24.60;41.80;;;;;;1577845;74;704;-60
2022/09/02 05:10:52;;;;;;;;;;;24.60;41.80;;;;;;1583457;74;777;-55
2022/09/02 05:12:54;;;;;;;;;;;24.70;42.00;;;;;;1570625;74;730;-57
2022/09/02 05:14:58;;;;;;;;;;;24.60;42.00;;;;;;1575705;74;652;-57
2022/09/02 05:17:00;;;;;;;;;;;24.70;42.10;;;;;;1577268;74;1676;-60
2022/09/02 05:19:02;;;;;;;;;;;24.60;41.90;;;;;;1581274;74;812;-56
2022/09/02 05:21:05;;;;;;;;;;;24.70;42.00;;;;;;1577449;74;838;-57
2022/09/02 05:23:07;;;;;;;;;;;24.70;42.10;;;;;;1580571;74;1936;-60
2022/09/02 05:25:10;;;;;;;;;;;24.70;42.00;;;;;;1576788;74;741;-60
2022/09/02 05:27:14;;;;;;;;;;;24.80;42.00;;;;;;1586818;74;731;-56
2022/09/02 05:29:17;;;;;;;;;;;24.80;42.00;;;;;;1584584;74;1667;-57
2022/09/02 05:31:20;;;;;;;;;;;24.80;42.10;;;;;;1581473;74;2073;-59
2022/09/02 05:33:22;;;;;;;;;;;24.80;42.00;;;;;;1587243;74;1092;-57
2022/09/02 05:35:23;;;;;;;;;;;24.80;42.00;;;;;;1584967;74;698;-60
2022/09/02 05:37:25;;;;;;;;;;;24.90;42.10;;;;;;1583419;74;696;-56
2022/09/02 05:39:28;;;;;;;;;;;24.90;42.10;;;;;;1581226;74;687;-55
2022/09/02 05:41:30;;;;;;;;;;;24.90;42.00;;;;;;1574271;74;798;-55
2022/09/02 05:43:32;;;;;;;;;;;24.90;42.20;;;;;;1580155;73;1932;-56
2022/09/02 05:45:33;;;;;;;;;;;25.00;42.50;;;;;;1575602;74;730;-58
2022/09/02 05:47:36;;;;;;;;;;;25.00;42.00;;;;;;1583974;74;787;-58
2022/09/02 05:49:38;;;;;;;;;;;25.10;41.70;;;;;;1579268;74;899;-58
2022/09/02 05:51:40;;;;;;;;;;;25.10;41.70;;;;;;1577995;74;1529;-60
2022/09/02 05:53:42;;;;;;;;;;;25.00;41.80;;;;;;1579364;74;1125;-60
2022/09/02 05:55:44;;;;;;;;;;;25.00;41.80;;;;;;1570577;74;784;-59
2022/09/02 05:57:46;;;;;;;;;;;25.00;41.70;;;;;;1584086;74;777;-60
2022/09/02 05:59:51;;;;;;;;;;;25.10;41.50;;;;;;1589031;74;756;-60
2022/09/02 06:01:52;;;;;;;;;;;25.00;41.50;;;;;;1576089;74;1687;-59
2022/09/02 06:03:54;;;;;;;;;;;24.90;41.70;;;;;;1571650;74;1930;-57
2022/09/02 06:05:56;;;;;;;;;;;25.00;41.60;;;;;;1578319;74;727;-59
2022/09/02 06:07:58;;;;;;;;;;;24.80;41.60;;;;;;1585780;74;718;-59
2022/09/02 06:10:00;;;;;;;;;;;24.80;41.70;;;;;;1581611;74;764;-59
2022/09/02 06:12:02;;;;;;;;;;;25.00;41.80;;;;;;1580685;74;730;-59
2022/09/02 06:14:06;;;;;;;;;;;24.80;41.70;;;;;;1576396;73;1131;-58
2022/09/02 06:16:09;;;;;;;;;;;24.80;41.70;;;;;;1578011;74;741;-58
2022/09/02 06:18:11;;;;;;;;;;;24.80;41.70;;;;;;1580840;74;822;-58
2022/09/02 06:20:13;;;;;;;;;;;24.80;41.70;;;;;;1562844;74;847;-60
2022/09/02 06:22:15;;;;;;;;;;;24.80;41.60;;;;;;1582434;74;746;-59
2022/09/02 06:24:17;;;;;;;;;;;24.80;41.70;;;;;;1587014;74;1961;-58
2022/09/02 06:26:19;;;;;;;;;;;24.80;41.70;;;;;;1578578;74;808;-57
2022/09/02 06:28:21;;;;;;;;;;;24.70;41.60;;;;;;1587806;74;759;-59
2022/09/02 06:30:23;;;;;;;;;;;24.80;41.30;;;;;;1583762;74;752;-58
2022/09/02 06:32:25;;;;;;;;;;;24.80;40.70;;;;;;1581382;74;725;-59
2022/09/02 06:34:27;;;;;;;;;;;24.70;40.00;;;;;;1590499;73;1124;-59
2022/09/02 06:36:29;;;;;;;;;;;24.70;40.30;;;;;;1586952;74;710;-59
2022/09/02 06:38:30;;;;;;;;;;;24.70;39.80;;;;;;1586250;74;618;-55
2022/09/02 06:40:32;;;;;;;;;;;24.60;39.40;;;;;;1584680;74;687;-57
2022/09/02 06:42:34;;;;;;;;;;;24.50;39.60;;;;;;1577794;74;726;-55
2022/09/02 06:44:36;;;;;;;;;;;24.50;39.80;;;;;;1586749;73;1954;-59
2022/09/02 06:46:39;;;;;;;;;;;24.50;40.10;;;;;;1572274;74;739;-55
2022/09/02 06:48:41;;;;;;;;;;;24.40;40.20;;;;;;1583415;74;1507;-59
2022/09/02 06:50:45;;;;;;;;;;;24.50;40.20;;;;;;1574568;74;636;-58
2022/09/02 06:52:47;;;;;;;;;;;24.50;40.30;;;;;;1579710;74;716;-57
2022/09/02 06:54:49;;;;;;;;;;;24.50;40.00;;;;;;1571087;74;1103;-59
2022/09/02 06:56:52;;;;;;;;;;;24.50;40.00;;;;;;1582110;74;776;-56
2022/09/02 06:58:53;;;;;;;;;;;24.40;39.30;;;;;;1583133;74;787;-55
2022/09/02 07:00:55;;;;;;;;;;;24.50;39.70;;;;;;1586954;74;799;-56
2022/09/02 07:05:19;;;;;;;;;;;24.50;38.80;;;;;;1570013;74;1913;-59
2022/09/02 07:07:21;;;;;;;;;;;24.40;39.60;;;;;;1574179;74;735;-58
2022/09/02 07:09:29;;;;;;;;;;;24.30;40.00;;;;;;1580340;74;779;-57
2022/09/02 07:11:28;;;;;;;;;;;24.40;40.00;;;;;;1576810;74;1606;-59
2022/09/02 07:13:30;;;;;;;;;;;24.40;39.90;;;;;;1579268;73;1175;-59
2022/09/02 07:15:31;;;;;;;;;;;24.40;39.70;;;;;;1570071;74;729;-59
2022/09/02 07:17:33;;;;;;;;;;;24.50;39.70;;;;;;1582825;74;842;-57
2022/09/02 07:19:35;;;;;;;;;;;24.50;39.80;;;;;;1578706;74;877;-56
2022/09/02 07:21:39;;;;;;;;;;;24.60;39.70;;;;;;1578849;74;792;-59
2022/09/02 07:23:41;;;;;;;;;;;24.60;39.20;;;;;;1570474;74;1682;-59
2022/09/02 07:25:42;;;;;;;;;;;24.60;39.20;;;;;;1558880;74;1934;-56
2022/09/02 07:27:44;;;;;;;;;;;24.60;39.20;;;;;;1573153;74;781;-58
2022/09/02 07:29:47;;;;;;;;;;;24.60;39.00;;;;;;1576382;74;780;-58
2022/09/02 07:31:49;;;;;;;;;;;24.60;39.10;;;;;;1577848;74;802;-55
2022/09/02 07:33:51;;;;;;;;;;;24.60;38.80;;;;;;1576761;73;1087;-59
2022/09/02 07:35:54;;;;;;;;;;;24.50;39.20;;;;;;1573532;74;766;-58
2022/09/02 07:37:55;;;;;;;;;;;24.50;39.30;;;;;;1583960;74;711;-58
2022/09/02 07:39:57;;;;;;;;;;;24.60;39.40;;;;;;1568107;74;781;-59
2022/09/02 07:41:59;;;;;;;;;;;24.60;39.00;;;;;;1578312;74;716;-57
2022/09/02 07:44:01;;;;;;;;;;;24.50;38.60;;;;;;1580032;74;1934;-54
2022/09/02 07:46:04;;;;;;;;;;;24.50;39.30;;;;;;1581717;74;782;-57
2022/09/02 07:48:06;;;;;;;;;;;24.50;39.30;;;;;;1576818;74;1351;-57
2022/09/02 07:50:08;;;;;;;;;;;24.40;39.30;;;;;;1571220;74;764;-58
2022/09/02 07:52:10;;;;;;;;;;;24.40;39.40;;;;;;1580267;74;689;-58
2022/09/02 07:54:12;;;;;;;;;;;24.40;39.10;;;;;;1576864;74;1087;-55
2022/09/02 07:56:14;;;;;;;;;;;24.30;38.60;;;;;;1582441;74;661;-59
2022/09/02 07:58:16;;;;;;;;;;;24.20;39.00;;;;;;1582885;74;1558;-59
2022/09/02 08:00:18;;;;;;;;;;;24.20;39.70;;;;;;1574963;74;779;-59
2022/09/02 08:02:20;;;;;;;;;;;24.20;39.70;;;;;;1578091;74;830;-59
2022/09/02 08:04:23;;;;;;;;;;;24.20;39.20;;;;;;1568557;74;1949;-59
2022/09/02 08:06:27;;;;;;;;;;;24.30;39.70;;;;;;1576754;74;808;-58
2022/09/02 08:08:29;;;;;;;;;;;24.30;39.50;;;;;;1577081;74;737;-56
2022/09/02 08:10:31;;;;;;;;;;;24.40;38.80;;;;;;1574576;74;770;-54
2022/09/02 08:12:33;;;;;;;;;;;24.40;39.30;;;;;;1571793;74;1331;-56
2022/09/02 08:14:35;;;;;;;;;;;24.40;39.40;;;;;;1575275;73;1147;-60
2022/09/02 08:16:37;;;;;;;;;;;24.40;39.10;;;;;;1571657;74;754;-59
2022/09/02 08:18:39;;;;;;;;;;;24.30;38.40;;;;;;1579242;74;762;-59
2022/09/02 08:20:41;;;;;;;;;;;24.20;38.60;;;;;;1571786;74;842;-58
2022/09/02 08:22:43;;;;;;;;;;;24.30;38.20;;;;;;1569740;74;739;-55
2022/09/02 08:24:45;;;;;;;;;;;24.20;38.90;;;;;;1575656;74;1962;-57
2022/09/02 08:26:47;;;;;;;;;;;24.20;38.60;;;;;;1572959;74;1549;-57
2022/09/02 08:28:49;;;;;;;;;;;24.00;37.80;;;;;;1572142;74;717;-58
2022/09/02 08:30:51;;;;;;;;;;;24.00;38.50;;;;;;1583762;74;635;-57
2022/09/02 08:32:53;;;;;;;;;;;24.00;39.00;;;;;;1581446;74;720;-55
2022/09/02 08:34:55;;;;;;;;;;;24.10;39.30;;;;;;1573961;74;1097;-57
2022/09/02 08:36:56;;;;;;;;;;;24.00;38.70;;;;;;1579124;74;810;-57
2022/09/02 08:39:00;;;;;;;;;;;24.10;39.40;;;;;;1580986;74;701;-57
2022/09/02 08:41:02;;;;;;;;;;;24.20;39.00;;;;;;1577090;74;1487;-57
2022/09/02 08:43:04;;;;;;;;;;;24.20;38.70;;;;;;1582089;74;1154;-55
2022/09/02 08:45:11;;;;;;;;;;;24.20;39.40;;;;;;1572998;74;1958;-55
2022/09/02 08:47:15;;;;;;;;;;;24.20;38.60;;;;;;1574895;74;1060;-56
2022/09/02 08:49:18;;;;;;;;;;;24.20;38.30;;;;;;1570828;74;731;-55
2022/09/02 08:51:22;;;;;;;;;;;24.10;38.40;;;;;;1572999;74;1939;-56
2022/09/02 08:53:25;;;;;;;;;;;24.00;37.80;;;;;;1570563;74;1767;-57
2022/09/02 08:55:29;;;;;;;;;;;24.00;38.80;;;;;;1581984;74;1687;-57
2022/09/02 08:57:30;;;;;;;;;;;24.10;38.40;;;;;;1575851;74;742;-56
2022/09/02 08:59:32;;;;;;;;;;;24.10;38.40;;;;;;1582198;74;800;-60
2022/09/02 09:01:52;;;;;;;;;;;24.10;39.10;;;;;;1574039;74;770;-59
2022/09/02 09:04:05;;;;;;;;;;;24.10;38.70;;;;;;1570681;74;1144;-59
2022/09/02 09:06:15;;;;;;;;;;;24.10;38.60;;;;;;1578098;74;1940;-59
2022/09/02 09:08:22;;;;;;;;;;;24.00;38.90;;;;;;1572463;74;1885;-59
2022/09/02 09:10:34;;;;;;;;;;;24.10;38.40;;;;;;1572897;74;1969;-59
2022/09/02 09:12:43;;;;;;;;;;;24.00;38.30;;;;;;1571564;74;658;-59
2022/09/02 09:14:49;;;;;;;;;;;24.00;38.50;;;;;;1569438;74;1853;-60
2022/09/02 09:17:01;;;;;;;;;;;24.00;38.00;;;;;;1571281;74;709;-60
2022/09/02 09:19:13;;;;;;;;;;;24.00;37.50;;;;;;1584334;74;1100;-58
2022/09/02 09:21:16;;;;;;;;;;;23.90;38.20;;;;;;1573022;74;785;-60
2022/09/02 09:23:20;;;;;;;;;;;23.90;38.30;;;;;;1578848;74;1528;-61
2022/09/02 09:25:28;;;;;;;;;;;23.80;37.70;;;;;;1569646;74;1978;-60
2022/09/02 09:27:26;;;;;;;;;;;23.90;38.60;;;;;;1567749;74;1680;-58
2022/09/02 09:29:29;;;;;;;;;;;23.80;37.60;;;;;;1575477;74;676;-56
2022/09/02 09:31:31;;;;;;;;;;;23.80;38.40;;;;;;1572778;74;1628;-58
2022/09/02 09:33:33;;;;;;;;;;;23.80;38.00;;;;;;1576356;73;1141;-55
2022/09/02 09:35:51;;;;;;;;;;;23.80;37.70;;;;;;1577120;74;789;-59
2022/09/02 09:37:53;;;;;;;;;;;23.80;38.20;;;;;;1568673;74;1321;-60
2022/09/02 09:39:55;;;;;;;;;;;23.80;38.50;;;;;;1569901;74;745;-60
2022/09/02 09:42:00;;;;;;;;;;;23.80;38.60;;;;;;1571877;74;930;-58
2022/09/02 09:44:02;;;;;;;;;;;23.90;38.70;;;;;;1567938;74;1151;-56
2022/09/02 09:46:05;;;;;;;;;;;24.00;38.20;;;;;;1571334;74;1933;-59
2022/09/02 09:48:09;;;;;;;;;;;23.90;37.90;;;;;;1576390;74;1856;-60
2022/09/02 09:50:17;;;;;;;;;;;23.90;38.30;;;;;;1579285;74;1408;-57
2022/09/02 09:52:23;;;;;;;;;;;23.90;38.30;;;;;;1578343;74;1665;-58
2022/09/02 09:54:25;;;;;;;;;;;24.00;38.00;;;;;;1582013;74;1116;-60
2022/09/02 09:56:28;;;;;;;;;;;24.00;38.30;;;;;;1578520;74;757;-60
2022/09/02 09:58:35;;;;;;;;;;;24.10;38.50;;;;;;1572732;74;697;-56
2022/09/02 10:00:37;;;;;;;;;;;24.00;38.40;;;;;;1578951;74;719;-58
2022/09/02 10:02:41;;;;;;;;;;;24.10;37.90;;;;;;1578343;74;789;-56
2022/09/02 10:04:43;;;;;;;;;;;24.00;38.00;;;;;;1570095;74;1958;-56
2022/09/02 10:06:47;;;;;;;;;;;23.90;37.80;;;;;;1576526;74;703;-58
2022/09/02 10:08:55;;;;;;;;;;;24.00;37.90;;;;;;1568772;74;1678;-55
2022/09/02 10:11:05;;;;;;;;;;;23.90;37.60;;;;;;1579701;74;760;-57
2022/09/02 10:13:20;;;;;;;;;;;24.00;37.60;;;;;;1579978;74;1210;-56
2022/09/02 10:15:24;;;;;;;;;;;24.00;37.60;;;;;;1575518;74;1799;-58
2022/09/02 10:17:39;;;;;;;;;;;23.90;37.70;;;;;;1572813;74;1062;-60
2022/09/02 10:19:45;;;;;;;;;;;23.90;38.00;;;;;;1570946;74;1531;-57
2022/09/02 10:21:49;;;;;;;;;;;23.90;36.90;;;;;;1569290;74;1861;-57
2022/09/02 10:23:53;;;;;;;;;;;23.90;37.20;;;;;;1572520;74;1150;-56
2022/09/02 10:26:13;;;;;;;;;;;23.80;36.70;;;;;;1574642;74;1899;-60
2022/09/02 10:28:29;;;;;;;;;;;23.80;37.30;;;;;;1570778;74;731;-60
2022/09/02 10:30:32;;;;;;;;;;;23.70;37.10;;;;;;1570905;74;1019;-57
2022/09/02 10:32:52;;;;;;;;;;;23.80;38.00;;;;;;1571471;73;3019;-59
2022/09/02 10:35:11;;;;;;;;;;;23.80;36.60;;;;;;1514649;75;1217;-59
2022/09/02 10:37:19;;;;;;;;;;;23.80;37.70;;;;;;1513155;77;749;-58
2022/09/02 10:39:35;;;;;;;;;;;23.80;36.50;;;;;;1514938;77;734;-59
2022/09/02 10:41:48;;;;;;;;;;;23.70;37.30;;;;;;1517956;76;957;-59
2022/09/02 10:43:48;;;;;;;;;;;23.80;36.80;;;;;;1520795;76;1826;-58
2022/09/02 10:45:52;;;;;;;;;;;23.70;36.60;;;;;;1516602;76;1944;-58
2022/09/02 10:47:56;;;;;;;;;;;23.80;36.80;;;;;;1527842;77;1465;-58
2022/09/02 10:50:14;;;;;;;;;;;23.80;37.20;;;;;;1554877;75;1695;-58
2022/09/02 10:52:24;;;;;;;;;;;23.70;37.40;;;;;;1520783;77;701;-59
2022/09/02 10:54:30;;;;;;;;;;;23.70;37.00;;;;;;1516201;76;1128;-59
2022/09/02 10:56:34;;;;;;;;;;;23.70;37.30;;;;;;1513339;77;1533;-59
2022/09/02 10:58:55;;;;;;;;;;;23.80;37.30;;;;;;1510984;77;1820;-60
2022/09/02 11:00:57;;;;;;;;;;;23.70;37.80;;;;;;1516962;77;1291;-59
2022/09/02 11:03:06;;;;;;;;;;;23.80;37.50;;;;;;1549032;75;1142;-59
2022/09/02 11:05:12;;;;;;;;;;;23.70;37.50;;;;;;1547593;75;1933;-59
2022/09/02 11:07:22;;;;;;;;;;;23.70;37.90;;;;;;1542088;75;1709;-59
2022/09/02 11:09:25;;;;;;;;;;;23.70;37.40;;;;;;1514356;77;744;-59
2022/09/02 11:11:38;;;;;;;;;;;23.80;37.30;;;;;;1536733;76;714;-59
2022/09/02 11:13:44;;;;;;;;;;;23.80;37.60;;;;;;1537502;76;1152;-59
2022/09/02 11:15:53;;;;;;;;;;;23.60;37.30;;;;;;1507526;77;1939;-58
2022/09/02 11:17:56;;;;;;;;;;;23.70;37.00;;;;;;1506873;77;766;-58
2022/09/02 11:20:00;;;;;;;;;;;23.80;37.60;;;;;;1537979;75;2154;-58
2022/09/02 11:22:06;;;;;;;;;;;23.80;37.70;;;;;;1539385;76;747;-58
2022/09/02 11:24:12;;;;;;;;;;;23.80;37.10;;;;;;1535796;76;1920;-58
2022/09/02 11:26:16;;;;;;;;;;;23.80;37.10;;;;;;1533306;76;1910;-58
2022/09/02 11:28:22;;;;;;;;;;;23.70;37.50;;;;;;1537944;76;796;-58
2022/09/02 11:30:25;;;;;;;;;;;23.70;37.30;;;;;;1538709;76;1362;-65
2022/09/02 11:32:45;;;;;;;;;;;23.70;36.80;;;;;;1538934;76;742;-58
2022/09/02 11:34:48;;;;;;;;;;;23.70;37.60;;;;;;1537660;76;1169;-58
2022/09/02 11:36:50;;;;;;;;;;;23.70;37.40;;;;;;1530173;76;828;-58
2022/09/02 11:38:59;;;;;;;;;;;23.60;37.40;;;;;;1544824;76;814;-58
2022/09/02 11:41:19;;;;;;;;;;;23.60;37.60;;;;;;1536081;76;1918;-58
2022/09/02 11:43:23;;;;;;;;;;;23.60;36.60;;;;;;1533168;76;1495;-59
2022/09/02 11:45:29;;;;;;;;;;;23.60;37.30;;;;;;1537423;76;1933;-59
2022/09/02 11:47:35;;;;;;;;;;;23.60;37.50;;;;;;1542337;76;728;-58
2022/09/02 11:49:39;;;;;;;;;;;23.60;37.60;;;;;;1530374;76;677;-59
2022/09/02 11:51:59;;;;;;;;;;;23.60;36.60;;;;;;1538792;76;817;-59
2022/09/02 11:54:02;;;;;;;;;;;23.50;37.40;;;;;;1531703;76;1230;-59
2022/09/02 11:56:19;;;;;;;;;;;23.50;37.60;;;;;;1540070;76;846;-59
2022/09/02 11:58:35;;;;;;;;;;;23.60;37.40;;;;;;1536977;76;1478;-59
2022/09/02 12:00:45;;;;;;;;;;;23.50;37.80;;;;;;1541569;76;654;-59
2022/09/02 12:02:49;;;;;;;;;;;23.50;37.90;;;;;;1492376;76;1087;-59
2022/09/02 12:04:51;;;;;;;;;;;23.50;37.60;;;;;;1536458;76;1837;-58
2022/09/02 12:06:55;;;;;;;;;;;23.60;37.60;;;;;;1538503;76;1916;-58
2022/09/02 12:08:58;;;;;;;;;;;23.50;37.70;;;;;;1518096;76;1238;-58
2022/09/02 12:11:03;;;;;;;;;;;23.40;37.60;;;;;;1549879;76;777;-58
2022/09/02 12:13:06;;;;;;;;;;;23.50;37.80;;;;;;1530847;76;1995;-59
2022/09/02 12:15:10;;;;;;;;;;;23.60;37.40;;;;;;1536530;76;782;-58
2022/09/02 12:17:12;;;;;;;;;;;23.50;37.30;;;;;;1516482;76;1306;-59
2022/09/02 12:19:17;;;;;;;;;;;23.50;37.20;;;;;;1520463;77;1080;-59